sensor_id;sensor_type;location;lat;lon;timestamp;temperature;humidity
1888;DHT22;944;51.574;6.980;2022-08-25T00:01:28;23.90;99.90
1888;DHT22;944;51.574;6.980;2022-08-25T00:04:00;23.80;99.90
1888;DHT22;944;51.574;6.980;2022-08-25T00:07:12;23.70;99.90
1888;DHT22;944;51.574;6.980;2022-08-25T00:10:19;23.60;99.90
1888;DHT22;944;51.574;6.980;2022-08-25T00:12:53;23.60;99.90
1888;DHT22;944;51.574;6.980;2022-08-25T00:19:21;23.40;99.90
1888;DHT22;944;51.574;6.980;2022-08-25T00:22:32;23.30;99.90
1888;DHT22;944;51.574;6.980;2022-08-25T00:25:20;23.30;99.90
1888;DHT22;944;51.574;6.980;2022-08-25T00:27:53;23.30;99.90
1888;DHT22;944;51.574;6.980;2022-08-25T00:30:30;23.30;99.90
1888;DHT22;944;51.574;6.980;2022-08-25T00:33:06;23.50;99.90
1888;DHT22;944;51.574;6.980;2022-08-25T00:39:02;23.50;99.90
1888;DHT22;944;51.574;6.980;2022-08-25T00:44:54;23.50;99.90
1888;DHT22;944;51.574;6.980;2022-08-25T00:47:46;23.50;99.90
1888;DHT22;944;51.574;6.980;2022-08-25T00:53:34;23.30;99.90
1888;DHT22;944;51.574;6.980;2022-08-25T00:56:10;23.30;99.90
1888;DHT22;944;51.574;6.980;2022-08-25T00:58:39;23.20;99.90
1888;DHT22;944;51.574;6.980;2022-08-25T01:01:16;23.10;99.90
1888;DHT22;944;51.574;6.980;2022-08-25T01:04:01;23.00;99.90
1888;DHT22;944;51.574;6.980;2022-08-25T01:06:40;22.80;99.90
1888;DHT22;944;51.574;6.980;2022-08-25T01:10:05;22.70;99.90
1888;DHT22;944;51.574;6.980;2022-08-25T01:12:44;22.50;99.90
1888;DHT22;944;51.574;6.980;2022-08-25T01:15:15;22.40;99.90
1888;DHT22;944;51.574;6.980;2022-08-25T01:18:03;22.30;99.90
1888;DHT22;944;51.574;6.980;2022-08-25T01:20:58;22.20;99.90
1888;DHT22;944;51.574;6.980;2022-08-25T01:27:09;22.10;99.90
1888;DHT22;944;51.574;6.980;2022-08-25T01:29:37;22.10;99.90
1888;DHT22;944;51.574;6.980;2022-08-25T01:39:30;22.00;99.90
1888;DHT22;944;51.574;6.980;2022-08-25T01:42:41;22.00;99.90
1888;DHT22;944;51.574;6.980;2022-08-25T01:45:21;22.00;99.90
1888;DHT22;944;51.574;6.980;2022-08-25T01:47:53;22.00;99.90
1888;DHT22;944;51.574;6.980;2022-08-25T01:57:15;21.60;99.90
1888;DHT22;944;51.574;6.980;2022-08-25T01:59:46;21.70;99.90
1888;DHT22;944;51.574;6.980;2022-08-25T02:02:19;21.60;99.90
1888;DHT22;944;51.574;6.980;2022-08-25T02:15:05;21.30;99.90
1888;DHT22;944;51.574;6.980;2022-08-25T02:17:55;21.20;99.90
1888;DHT22;944;51.574;6.980;2022-08-25T02:27:43;21.10;99.90
1888;DHT22;944;51.574;6.980;2022-08-25T02:33:44;21.00;99.90
1888;DHT22;944;51.574;6.980;2022-08-25T02:36:28;20.90;99.90
1888;DHT22;944;51.574;6.980;2022-08-25T02:38:59;21.00;99.90
1888;DHT22;944;51.574;6.980;2022-08-25T02:41:33;20.90;99.90
1888;DHT22;944;51.574;6.980;2022-08-25T02:44:39;20.80;99.90
1888;DHT22;944;51.574;6.980;2022-08-25T02:47:17;20.80;99.90
1888;DHT22;944;51.574;6.980;2022-08-25T02:52:49;20.70;99.90
1888;DHT22;944;51.574;6.980;2022-08-25T02:55:38;20.70;99.90
1888;DHT22;944;51.574;6.980;2022-08-25T02:58:06;20.60;99.90
1888;DHT22;944;51.574;6.980;2022-08-25T03:01:00;20.50;99.90
1888;DHT22;944;51.574;6.980;2022-08-25T03:04:18;20.50;99.90
1888;DHT22;944;51.574;6.980;2022-08-25T03:06:47;20.50;99.90
1888;DHT22;944;51.574;6.980;2022-08-25T03:09:16;20.50;99.90
1888;DHT22;944;51.574;6.980;2022-08-25T03:11:51;20.50;99.90
1888;DHT22;944;51.574;6.980;2022-08-25T03:14:51;20.50;99.90
1888;DHT22;944;51.574;6.980;2022-08-25T03:17:53;20.30;99.90
1888;DHT22;944;51.574;6.980;2022-08-25T03:20:36;20.30;99.90
1888;DHT22;944;51.574;6.980;2022-08-25T03:23:06;20.40;99.90
1888;DHT22;944;51.574;6.980;2022-08-25T03:36:06;20.20;99.90
1888;DHT22;944;51.574;6.980;2022-08-25T03:38:36;20.20;99.90
1888;DHT22;944;51.574;6.980;2022-08-25T03:41:22;20.20;99.90
1888;DHT22;944;51.574;6.980;2022-08-25T03:44:00;20.00;99.90
1888;DHT22;944;51.574;6.980;2022-08-25T03:46:38;20.20;99.90
1888;DHT22;944;51.574;6.980;2022-08-25T03:49:11;20.30;99.90
1888;DHT22;944;51.574;6.980;2022-08-25T03:51:49;20.10;99.90
1888;DHT22;944;51.574;6.980;2022-08-25T03:54:21;20.20;99.90
1888;DHT22;944;51.574;6.980;2022-08-25T03:56:51;20.10;99.90
1888;DHT22;944;51.574;6.980;2022-08-25T03:59:29;20.20;99.90
1888;DHT22;944;51.574;6.980;2022-08-25T04:02:04;20.10;99.90
1888;DHT22;944;51.574;6.980;2022-08-25T04:04:34;20.00;99.90
1888;DHT22;944;51.574;6.980;2022-08-25T04:07:03;20.00;99.90
1888;DHT22;944;51.574;6.980;2022-08-25T04:09:47;20.00;99.90
1888;DHT22;944;51.574;6.980;2022-08-25T04:12:33;20.00;99.90
1888;DHT22;944;51.574;6.980;2022-08-25T04:15:13;20.00;99.90
1888;DHT22;944;51.574;6.980;2022-08-25T04:17:55;20.10;99.90
1888;DHT22;944;51.574;6.980;2022-08-25T04:23:41;20.10;99.90
1888;DHT22;944;51.574;6.980;2022-08-25T04:26:17;20.20;99.90
1888;DHT22;944;51.574;6.980;2022-08-25T04:28:58;20.20;99.90
1888;DHT22;944;51.574;6.980;2022-08-25T04:31:33;20.30;99.90
1888;DHT22;944;51.574;6.980;2022-08-25T04:34:01;20.30;99.90
1888;DHT22;944;51.574;6.980;2022-08-25T04:36:48;20.50;99.90
1888;DHT22;944;51.574;6.980;2022-08-25T04:41:41;20.30;99.90
1888;DHT22;944;51.574;6.980;2022-08-25T04:46:44;20.20;99.90
1888;DHT22;944;51.574;6.980;2022-08-25T04:49:21;20.20;99.90
1888;DHT22;944;51.574;6.980;2022-08-25T04:51:55;20.20;99.90
1888;DHT22;944;51.574;6.980;2022-08-25T04:54:24;20.00;99.90
1888;DHT22;944;51.574;6.980;2022-08-25T04:56:55;20.40;99.90
1888;DHT22;944;51.574;6.980;2022-08-25T04:59:24;20.30;99.90
1888;DHT22;944;51.574;6.980;2022-08-25T05:05:23;20.30;99.90
1888;DHT22;944;51.574;6.980;2022-08-25T05:08:49;20.30;99.90
1888;DHT22;944;51.574;6.980;2022-08-25T05:11:58;20.40;99.90
1888;DHT22;944;51.574;6.980;2022-08-25T05:15:11;20.50;99.90
1888;DHT22;944;51.574;6.980;2022-08-25T05:19:20;20.60;99.90
1888;DHT22;944;51.574;6.980;2022-08-25T05:21:29;20.70;99.90
1888;DHT22;944;51.574;6.980;2022-08-25T05:24:22;20.80;99.90
1888;DHT22;944;51.574;6.980;2022-08-25T05:27:20;20.90;99.90
1888;DHT22;944;51.574;6.980;2022-08-25T05:29:58;20.90;99.90
1888;DHT22;944;51.574;6.980;2022-08-25T05:36:38;21.00;99.90
1888;DHT22;944;51.574;6.980;2022-08-25T05:39:08;21.10;99.90
1888;DHT22;944;51.574;6.980;2022-08-25T05:41:37;21.10;99.90
1888;DHT22;944;51.574;6.980;2022-08-25T05:44:06;21.30;99.90
1888;DHT22;944;51.574;6.980;2022-08-25T05:46:33;21.20;99.90
1888;DHT22;944;51.574;6.980;2022-08-25T05:49:01;21.30;99.90
1888;DHT22;944;51.574;6.980;2022-08-25T05:51:31;21.30;99.90
1888;DHT22;944;51.574;6.980;2022-08-25T05:53:59;21.30;99.90
1888;DHT22;944;51.574;6.980;2022-08-25T05:56:29;21.50;99.90
1888;DHT22;944;51.574;6.980;2022-08-25T05:58:57;21.50;99.90
1888;DHT22;944;51.574;6.980;2022-08-25T06:01:27;21.60;99.90
1888;DHT22;944;51.574;6.980;2022-08-25T06:04:12;21.70;99.90
1888;DHT22;944;51.574;6.980;2022-08-25T06:06:40;21.70;99.90
1888;DHT22;944;51.574;6.980;2022-08-25T06:09:12;21.90;99.90
1888;DHT22;944;51.574;6.980;2022-08-25T06:11:40;21.80;99.90
1888;DHT22;944;51.574;6.980;2022-08-25T06:14:40;21.90;99.90
1888;DHT22;944;51.574;6.980;2022-08-25T06:21:18;22.10;99.90
1888;DHT22;944;51.574;6.980;2022-08-25T06:24:09;22.20;99.90
1888;DHT22;944;51.574;6.980;2022-08-25T06:27:40;22.30;99.90
1888;DHT22;944;51.574;6.980;2022-08-25T06:30:38;22.40;99.90
1888;DHT22;944;51.574;6.980;2022-08-25T06:33:28;22.50;99.90
1888;DHT22;944;51.574;6.980;2022-08-25T06:40:17;22.70;99.90
1888;DHT22;944;51.574;6.980;2022-08-25T06:56:20;23.50;99.90
1888;DHT22;944;51.574;6.980;2022-08-25T06:58:48;23.50;99.90
1888;DHT22;944;51.574;6.980;2022-08-25T07:01:17;24.10;99.90
1888;DHT22;944;51.574;6.980;2022-08-25T07:04:20;24.60;99.90
1888;DHT22;944;51.574;6.980;2022-08-25T07:06:57;25.50;99.90
1888;DHT22;944;51.574;6.980;2022-08-25T07:13:09;26.40;99.90
1888;DHT22;944;51.574;6.980;2022-08-25T07:15:39;26.80;99.90
1888;DHT22;944;51.574;6.980;2022-08-25T07:18:10;27.30;99.90
1888;DHT22;944;51.574;6.980;2022-08-25T07:24:23;27.80;99.90
1888;DHT22;944;51.574;6.980;2022-08-25T07:26:50;28.30;99.90
1888;DHT22;944;51.574;6.980;2022-08-25T07:29:21;28.80;99.90
1888;DHT22;944;51.574;6.980;2022-08-25T07:31:49;29.00;99.90
1888;DHT22;944;51.574;6.980;2022-08-25T07:34:16;28.70;99.90
1888;DHT22;944;51.574;6.980;2022-08-25T07:37:01;28.90;99.90
1888;DHT22;944;51.574;6.980;2022-08-25T07:39:31;29.00;99.90
1888;DHT22;944;51.574;6.980;2022-08-25T07:41:59;28.70;99.90
1888;DHT22;944;51.574;6.980;2022-08-25T07:44:27;28.70;99.90
1888;DHT22;944;51.574;6.980;2022-08-25T07:46:54;28.90;99.90
1888;DHT22;944;51.574;6.980;2022-08-25T07:49:23;29.00;99.90
1888;DHT22;944;51.574;6.980;2022-08-25T07:51:52;29.00;99.90
1888;DHT22;944;51.574;6.980;2022-08-25T07:54:19;29.00;99.90
1888;DHT22;944;51.574;6.980;2022-08-25T07:56:48;29.30;99.90
1888;DHT22;944;51.574;6.980;2022-08-25T07:59:15;29.30;99.90
1888;DHT22;944;51.574;6.980;2022-08-25T08:01:43;29.20;99.90
1888;DHT22;944;51.574;6.980;2022-08-25T08:04:14;29.00;99.90
1888;DHT22;944;51.574;6.980;2022-08-25T08:06:44;29.10;99.90
1888;DHT22;944;51.574;6.980;2022-08-25T08:09:11;29.40;99.90
1888;DHT22;944;51.574;6.980;2022-08-25T08:11:39;29.30;99.90
1888;DHT22;944;51.574;6.980;2022-08-25T08:14:12;29.50;99.90
1888;DHT22;944;51.574;6.980;2022-08-25T08:16:43;30.00;99.90
1888;DHT22;944;51.574;6.980;2022-08-25T08:19:10;30.00;99.90
1888;DHT22;944;51.574;6.980;2022-08-25T08:21:37;29.80;99.90
1888;DHT22;944;51.574;6.980;2022-08-25T08:24:05;29.70;99.90
1888;DHT22;944;51.574;6.980;2022-08-25T08:26:32;29.90;99.90
1888;DHT22;944;51.574;6.980;2022-08-25T08:29:00;30.00;99.90
1888;DHT22;944;51.574;6.980;2022-08-25T08:31:28;30.00;99.90
1888;DHT22;944;51.574;6.980;2022-08-25T08:33:56;30.20;99.90
1888;DHT22;944;51.574;6.980;2022-08-25T08:36:27;30.10;99.90
1888;DHT22;944;51.574;6.980;2022-08-25T08:38:56;30.50;99.90
1888;DHT22;944;51.574;6.980;2022-08-25T08:41:39;30.20;99.90
1888;DHT22;944;51.574;6.980;2022-08-25T08:44:41;30.30;99.90
1888;DHT22;944;51.574;6.980;2022-08-25T08:47:22;30.50;99.90
1888;DHT22;944;51.574;6.980;2022-08-25T08:50:22;30.30;99.90
1888;DHT22;944;51.574;6.980;2022-08-25T08:53:02;30.30;99.90
1888;DHT22;944;51.574;6.980;2022-08-25T08:55:35;30.30;99.90
1888;DHT22;944;51.574;6.980;2022-08-25T08:58:09;30.50;99.90
1888;DHT22;944;51.574;6.980;2022-08-25T09:00:42;30.50;99.90
1888;DHT22;944;51.574;6.980;2022-08-25T09:03:25;30.70;99.90
1888;DHT22;944;51.574;6.980;2022-08-25T09:06:04;30.90;99.90
1888;DHT22;944;51.574;6.980;2022-08-25T09:08:49;31.10;99.90
1888;DHT22;944;51.574;6.980;2022-08-25T09:11:31;31.20;99.90
1888;DHT22;944;51.574;6.980;2022-08-25T09:25:50;31.50;99.90
1888;DHT22;944;51.574;6.980;2022-08-25T09:28:29;31.30;99.90
1888;DHT22;944;51.574;6.980;2022-08-25T09:31:00;31.10;99.90
1888;DHT22;944;51.574;6.980;2022-08-25T09:33:33;30.90;99.90
1888;DHT22;944;51.574;6.980;2022-08-25T09:36:03;30.50;99.90
1888;DHT22;944;51.574;6.980;2022-08-25T09:38:33;30.30;99.90
1888;DHT22;944;51.574;6.980;2022-08-25T09:41:03;30.30;99.90
1888;DHT22;944;51.574;6.980;2022-08-25T09:43:33;30.30;99.90
1888;DHT22;944;51.574;6.980;2022-08-25T10:40:48;29.50;99.90
1888;DHT22;944;51.574;6.980;2022-08-25T10:43:28;29.30;99.90
1888;DHT22;944;51.574;6.980;2022-08-25T10:46:07;29.40;99.90
1888;DHT22;944;51.574;6.980;2022-08-25T10:48:50;29.60;99.90
1888;DHT22;944;51.574;6.980;2022-08-25T10:51:40;29.50;99.90
1888;DHT22;944;51.574;6.980;2022-08-25T11:03:48;29.80;99.90
1888;DHT22;944;51.574;6.980;2022-08-25T11:06:21;29.90;99.90
1888;DHT22;944;51.574;6.980;2022-08-25T11:08:54;30.00;99.90
1888;DHT22;944;51.574;6.980;2022-08-25T11:11:29;30.20;99.90
1888;DHT22;944;51.574;6.980;2022-08-25T11:14:01;30.40;99.90
1888;DHT22;944;51.574;6.980;2022-08-25T11:16:37;30.50;99.90
1888;DHT22;944;51.574;6.980;2022-08-25T11:19:14;30.50;99.90
1888;DHT22;944;51.574;6.980;2022-08-25T11:21:48;30.40;99.90
1888;DHT22;944;51.574;6.980;2022-08-25T11:24:31;30.40;99.90
1888;DHT22;944;51.574;6.980;2022-08-25T11:27:10;30.30;99.90
1888;DHT22;944;51.574;6.980;2022-08-25T11:29:50;30.50;99.90
1888;DHT22;944;51.574;6.980;2022-08-25T11:32:27;30.20;99.90
1888;DHT22;944;51.574;6.980;2022-08-25T11:35:00;30.10;99.90
1888;DHT22;944;51.574;6.980;2022-08-25T11:44:49;30.20;99.90
1888;DHT22;944;51.574;6.980;2022-08-25T11:47:52;30.30;99.90
1888;DHT22;944;51.574;6.980;2022-08-25T11:50:28;30.30;99.90
1888;DHT22;944;51.574;6.980;2022-08-25T11:52:59;30.30;99.90
1888;DHT22;944;51.574;6.980;2022-08-25T11:55:57;30.30;99.90
1888;DHT22;944;51.574;6.980;2022-08-25T11:58:49;30.60;99.90
1888;DHT22;944;51.574;6.980;2022-08-25T12:02:07;30.80;99.90
1888;DHT22;944;51.574;6.980;2022-08-25T12:04:39;30.80;99.90
1888;DHT22;944;51.574;6.980;2022-08-25T12:07:24;30.80;99.90
1888;DHT22;944;51.574;6.980;2022-08-25T12:10:15;30.70;99.90
1888;DHT22;944;51.574;6.980;2022-08-25T12:13:23;30.60;99.90
1888;DHT22;944;51.574;6.980;2022-08-25T12:16:37;30.40;99.90
1888;DHT22;944;51.574;6.980;2022-08-25T12:19:28;30.50;99.90
1888;DHT22;944;51.574;6.980;2022-08-25T12:26:12;30.40;99.90
1888;DHT22;944;51.574;6.980;2022-08-25T12:28:56;30.40;99.90
1888;DHT22;944;51.574;6.980;2022-08-25T12:31:49;30.40;99.90
1888;DHT22;944;51.574;6.980;2022-08-25T12:34:40;30.50;99.90
1888;DHT22;944;51.574;6.980;2022-08-25T12:37:32;30.50;99.90
1888;DHT22;944;51.574;6.980;2022-08-25T12:40:03;30.70;99.90
1888;DHT22;944;51.574;6.980;2022-08-25T12:42:45;30.60;99.90
1888;DHT22;944;51.574;6.980;2022-08-25T12:45:32;30.60;99.90
1888;DHT22;944;51.574;6.980;2022-08-25T12:51:47;30.80;99.90
1888;DHT22;944;51.574;6.980;2022-08-25T12:54:44;30.80;99.90
1888;DHT22;944;51.574;6.980;2022-08-25T13:00:20;31.10;99.90
1888;DHT22;944;51.574;6.980;2022-08-25T13:03:08;31.20;99.90
1888;DHT22;944;51.574;6.980;2022-08-25T13:06:14;31.10;99.90
1888;DHT22;944;51.574;6.980;2022-08-25T13:12:48;31.10;99.90
1888;DHT22;944;51.574;6.980;2022-08-25T13:15:41;31.00;99.90
1888;DHT22;944;51.574;6.980;2022-08-25T13:18:23;30.90;99.90
1888;DHT22;944;51.574;6.980;2022-08-25T13:21:14;30.70;99.90
1888;DHT22;944;51.574;6.980;2022-08-25T13:24:00;30.70;99.90
1888;DHT22;944;51.574;6.980;2022-08-25T13:26:36;30.50;99.90
1888;DHT22;944;51.574;6.980;2022-08-25T13:29:18;30.80;99.90
1888;DHT22;944;51.574;6.980;2022-08-25T13:32:03;30.80;99.90
1888;DHT22;944;51.574;6.980;2022-08-25T13:35:08;30.80;99.90
1888;DHT22;944;51.574;6.980;2022-08-25T13:38:48;31.30;99.90
1888;DHT22;944;51.574;6.980;2022-08-25T14:53:06;31.50;99.90
1888;DHT22;944;51.574;6.980;2022-08-25T15:53:11;31.40;99.90
1888;DHT22;944;51.574;6.980;2022-08-25T15:55:45;31.40;99.90
1888;DHT22;944;51.574;6.980;2022-08-25T15:58:13;31.30;99.90
1888;DHT22;944;51.574;6.980;2022-08-25T16:00:41;31.30;99.90
1888;DHT22;944;51.574;6.980;2022-08-25T16:06:51;31.30;99.90
1888;DHT22;944;51.574;6.980;2022-08-25T16:09:21;31.30;99.90
1888;DHT22;944;51.574;6.980;2022-08-25T16:12:00;31.30;99.90
1888;DHT22;944;51.574;6.980;2022-08-25T16:17:57;31.30;99.90
1888;DHT22;944;51.574;6.980;2022-08-25T16:31:45;30.90;99.90
1888;DHT22;944;51.574;6.980;2022-08-25T16:34:32;30.80;99.90
1888;DHT22;944;51.574;6.980;2022-08-25T16:37:11;30.80;99.90
1888;DHT22;944;51.574;6.980;2022-08-25T16:39:46;30.80;99.90
1888;DHT22;944;51.574;6.980;2022-08-25T16:43:31;30.90;99.90
1888;DHT22;944;51.574;6.980;2022-08-25T16:53:00;30.80;99.90
1888;DHT22;944;51.574;6.980;2022-08-25T16:56:08;30.80;99.90
1888;DHT22;944;51.574;6.980;2022-08-25T16:59:33;30.90;99.90
1888;DHT22;944;51.574;6.980;2022-08-25T17:02:18;30.90;99.90
1888;DHT22;944;51.574;6.980;2022-08-25T17:05:09;30.80;99.90
1888;DHT22;944;51.574;6.980;2022-08-25T17:07:42;30.60;99.90
1888;DHT22;944;51.574;6.980;2022-08-25T17:11:07;30.50;99.90
1888;DHT22;944;51.574;6.980;2022-08-25T17:13:50;30.50;99.90
1888;DHT22;944;51.574;6.980;2022-08-25T17:16:44;30.50;99.90
1888;DHT22;944;51.574;6.980;2022-08-25T17:19:19;30.50;99.90
1888;DHT22;944;51.574;6.980;2022-08-25T17:22:01;30.40;99.90
1888;DHT22;944;51.574;6.980;2022-08-25T20:30:54;26.20;99.90
1888;DHT22;944;51.574;6.980;2022-08-25T20:34:13;26.10;99.90
1888;DHT22;944;51.574;6.980;2022-08-25T20:37:31;26.10;99.90
1888;DHT22;944;51.574;6.980;2022-08-25T20:44:29;26.00;99.90
1888;DHT22;944;51.574;6.980;2022-08-25T20:47:34;26.00;99.90
1888;DHT22;944;51.574;6.980;2022-08-25T20:54:31;25.80;99.90
1888;DHT22;944;51.574;6.980;2022-08-25T20:57:17;25.70;99.90
1888;DHT22;944;51.574;6.980;2022-08-25T21:00:26;25.70;99.90
1888;DHT22;944;51.574;6.980;2022-08-25T21:03:31;25.60;99.90
1888;DHT22;944;51.574;6.980;2022-08-25T21:06:39;25.60;99.90
1888;DHT22;944;51.574;6.980;2022-08-25T21:13:40;25.50;99.90
1888;DHT22;944;51.574;6.980;2022-08-25T21:17:03;25.40;99.90
